createdAt,value
2016-06-29T00:03:00.882Z,13.3
2016-06-29T00:06:10.530Z,13.3
2016-06-29T00:09:22.089Z,13.2
2016-06-29T00:12:33.798Z,13.2
2016-06-29T00:15:46.228Z,13.2
2016-06-29T00:19:03.862Z,13.1
2016-06-29T00:22:06.474Z,13.1
2016-06-29T00:25:18.882Z,13.1
2016-06-29T00:28:31.645Z,13.1
2016-06-29T00:31:44.314Z,13.1
2016-06-29T00:35:02.001Z,13.1
2016-06-29T00:38:05.022Z,13.1
2016-06-29T00:41:17.708Z,13
2016-06-29T00:44:28.446Z,13
2016-06-29T00:47:41.240Z,13
2016-06-29T00:50:59.005Z,13.1
2016-06-29T00:54:01.999Z,13.1
2016-06-29T00:57:15.127Z,13
2016-06-29T01:00:24.723Z,13
2016-06-29T01:03:36.383Z,13.1
2016-06-29T01:06:50.429Z,13.1
2016-06-29T01:10:04.024Z,13.1
2016-06-29T01:13:17.856Z,13.1
2016-06-29T01:16:31.775Z,13.1
2016-06-29T01:19:45.637Z,13.1
2016-06-29T01:23:03.104Z,13.1
2016-06-29T01:26:07.239Z,13
2016-06-29T01:29:20.950Z,13
2016-06-29T01:32:34.756Z,13
2016-06-29T01:35:48.560Z,12.9
2016-06-29T01:39:02.268Z,12.9
2016-06-29T01:42:15.762Z,13
2016-06-29T01:45:29.793Z,13
2016-06-29T01:48:42.665Z,13
2016-06-29T01:51:59.902Z,13
2016-06-29T01:55:04.059Z,12.9
2016-06-29T01:58:18.047Z,13
2016-06-29T02:01:31.886Z,13
2016-06-29T02:04:45.801Z,13
2016-06-29T02:08:04.733Z,13
2016-06-29T02:11:09.071Z,13
2016-06-29T02:14:23.223Z,13
2016-06-29T02:17:37.275Z,13
2016-06-29T02:20:51.211Z,13
2016-06-29T02:24:05.055Z,13
2016-06-29T02:27:19.076Z,12.9
2016-06-29T02:30:33.004Z,13
2016-06-29T02:33:46.810Z,13.1
2016-06-29T02:37:04.679Z,13
2016-06-29T02:40:08.791Z,13
2016-06-29T02:43:22.788Z,13
2016-06-29T02:46:35.458Z,13.1
2016-06-29T02:49:49.734Z,13.1
2016-06-29T02:53:03.427Z,13.1
2016-06-29T02:56:17.345Z,13.1
2016-06-29T02:59:27.506Z,13.2
2016-06-29T03:02:41.663Z,13.2
2016-06-29T03:05:56.939Z,13.2
2016-06-29T03:09:01.288Z,13.2
2016-06-29T03:12:12.966Z,13.2
2016-06-29T03:15:27.015Z,13.2
2016-06-29T03:18:40.746Z,13.2
2016-06-29T03:22:00.111Z,13.2
2016-06-29T03:25:04.301Z,13.3
2016-06-29T03:28:18.188Z,13.3
2016-06-29T03:31:30.154Z,13.4
2016-06-29T03:34:46.427Z,13.4
2016-06-29T03:38:05.238Z,13.4
2016-06-29T03:41:09.487Z,13.5
2016-06-29T03:44:23.523Z,13.5
2016-06-29T03:47:37.548Z,13.5
2016-06-29T03:50:51.204Z,13.5
2016-06-29T03:54:05.383Z,13.5
2016-06-29T03:57:18.428Z,13.5
2016-06-29T04:00:32.303Z,13.5
2016-06-29T04:03:45.449Z,13.5
2016-06-29T04:07:04.251Z,13.5
2016-06-29T04:10:08.542Z,13.4
2016-06-29T04:13:22.175Z,13.4
2016-06-29T04:16:36.269Z,13.4
2016-06-29T04:19:50.338Z,13.4
2016-06-29T04:23:04.466Z,13.4
2016-06-29T04:26:18.470Z,13.4
2016-06-29T04:29:30.772Z,13.4
2016-06-29T04:32:44.638Z,13.4
2016-06-29T04:36:03.650Z,13.4
2016-06-29T04:39:07.996Z,13.4
2016-06-29T04:42:18.781Z,13.4
2016-06-29T04:45:32.708Z,13.4
2016-06-29T04:48:46.864Z,13.5
2016-06-29T04:52:04.940Z,13.5
2016-06-29T04:55:09.082Z,13.6
2016-06-29T04:58:23.203Z,13.6
2016-06-29T05:01:37.163Z,13.7
2016-06-29T05:04:49.775Z,13.8
2016-06-29T05:08:03.242Z,13.8
2016-06-29T05:11:15.159Z,13.9
2016-06-29T05:14:31.069Z,13.9
2016-06-29T05:17:44.566Z,13.9
2016-06-29T05:21:03.676Z,14
2016-06-29T05:24:07.958Z,14.1
2016-06-29T05:27:22.034Z,14.3
2016-06-29T05:30:36.145Z,14.5
2016-06-29T05:33:50.299Z,14.7
2016-06-29T05:37:04.283Z,14.9
2016-06-29T05:40:17.353Z,15
2016-06-29T05:43:31.352Z,15
2016-06-29T05:46:42.876Z,15.1
2016-06-29T05:50:02.052Z,15.1
2016-06-29T05:53:06.283Z,15.1
2016-06-29T05:56:20.382Z,15.1
2016-06-29T05:59:34.370Z,15.2
2016-06-29T06:02:48.418Z,15.3
2016-06-29T06:06:02.339Z,15.4
2016-06-29T06:09:16.401Z,15.5
2016-06-29T06:12:30.351Z,15.7
2016-06-29T06:15:44.533Z,16.1
2016-06-29T06:19:03.890Z,16.2
2016-06-29T06:22:08.371Z,16.3
2016-06-29T06:25:22.623Z,16.5
2016-06-29T06:28:36.802Z,16.8
2016-06-29T06:31:51.089Z,17.1
2016-06-29T06:35:05.200Z,17.3
2016-06-29T06:38:17.525Z,17.5
2016-06-29T06:41:33.618Z,17.6
2016-06-29T06:44:47.855Z,17.8
2016-06-29T06:48:04.461Z,17.8
2016-06-29T06:51:09.108Z,17.7
2016-06-29T06:54:23.339Z,17.6
2016-06-29T06:57:37.426Z,17.5
2016-06-29T07:00:51.631Z,17.5
2016-06-29T07:04:03.142Z,17.4
2016-06-29T07:07:16.955Z,17.2
2016-06-29T07:10:30.421Z,17.1
2016-06-29T07:13:44.130Z,16.9
2016-06-29T07:17:02.943Z,16.8
2016-06-29T07:20:06.869Z,16.9
2016-06-29T07:23:21.207Z,17
2016-06-29T07:26:35.259Z,17.7
2016-06-29T07:29:50.194Z,19.3
2016-06-29T07:33:04.852Z,20.6
2016-06-29T07:36:20.062Z,22.2
2016-06-29T07:39:32.888Z,23.6
2016-06-29T07:42:50.688Z,24.6
2016-06-29T07:46:06.617Z,25.5
2016-06-29T07:49:22.701Z,26
2016-06-29T07:52:36.078Z,26.6
2016-06-29T07:55:58.635Z,27.1
2016-06-29T07:59:02.372Z,26.7
2016-06-29T08:02:16.014Z,26.4
2016-06-29T08:05:28.006Z,25
2016-06-29T08:08:41.594Z,25
2016-06-29T08:12:00.300Z,26.1
2016-06-29T08:15:04.234Z,25.9
2016-06-29T08:18:18.280Z,27
2016-06-29T08:21:32.872Z,27.8
2016-06-29T08:24:47.158Z,27.4
2016-06-29T08:28:01.979Z,27.2
2016-06-29T08:31:16.074Z,26.3
2016-06-29T08:34:30.334Z,25.8
2016-06-29T08:37:42.266Z,24.9
2016-06-29T08:41:01.085Z,24.3
2016-06-29T08:44:05.741Z,24.9
2016-06-29T08:47:20.001Z,24.7
2016-06-29T08:50:33.555Z,25.2
2016-06-29T08:53:45.782Z,25.5
2016-06-29T08:57:06.695Z,24.9
2016-06-29T09:00:11.246Z,25.5
2016-06-29T09:03:25.803Z,26.5
2016-06-29T09:06:38.870Z,26.6
2016-06-29T09:09:57.791Z,25.5
2016-06-29T09:13:01.973Z,25.2
2016-06-29T09:16:16.118Z,25.7
2016-06-29T09:19:30.536Z,25.8
2016-06-29T09:22:44.828Z,25.5
2016-06-29T09:26:03.080Z,25.3
2016-06-29T09:29:07.338Z,24.9
2016-06-29T09:32:21.422Z,24.3
2016-06-29T09:35:35.263Z,23.8
2016-06-29T09:38:49.030Z,23.1
2016-06-29T09:42:02.626Z,22.6
2016-06-29T09:45:16.310Z,22.1
2016-06-29T09:48:30.047Z,21.7
2016-06-29T09:51:43.778Z,22.3
2016-06-29T09:55:02.759Z,23
2016-06-29T09:58:06.878Z,23.2
2016-06-29T10:01:20.515Z,22.8
2016-06-29T10:04:34.180Z,22.4
2016-06-29T10:07:47.646Z,22.3
2016-06-29T10:11:06.365Z,22.3
2016-06-29T10:14:10.244Z,22.2
2016-06-29T10:17:21.850Z,21.9
2016-06-29T10:20:35.242Z,21.6
2016-06-29T10:23:44.383Z,21.4
2016-06-29T10:27:04.654Z,21.3
2016-06-29T10:30:08.269Z,21.3
2016-06-29T10:33:21.297Z,21.2
2016-06-29T10:36:30.993Z,21.3
2016-06-29T10:39:46.444Z,21.4
2016-06-29T10:43:04.918Z,21.5
2016-06-29T10:46:08.419Z,21.7
2016-06-29T10:49:21.617Z,21.8
2016-06-29T10:52:34.816Z,21.9
2016-06-29T10:55:45.426Z,22
2016-06-29T10:59:03.715Z,21.9
2016-06-29T11:02:06.734Z,21.8
2016-06-29T11:05:19.563Z,21.7
2016-06-29T11:08:31.851Z,21.7
2016-06-29T11:11:44.287Z,21.6
2016-06-29T11:15:01.519Z,21.6
2016-06-29T11:18:03.811Z,21.5
2016-06-29T11:21:17.250Z,21.4
2016-06-29T11:24:30.867Z,21.4
2016-06-29T11:27:44.397Z,21.4
2016-06-29T11:31:03.330Z,21.4
2016-06-29T11:34:07.648Z,21.4
2016-06-29T11:37:22.109Z,21.4
2016-06-29T11:40:33.815Z,21.4
2016-06-29T11:43:47.787Z,21.5
2016-06-29T11:47:06.412Z,21.7
2016-06-29T11:50:10.462Z,21.7
2016-06-29T11:53:24.067Z,21.7
2016-06-29T11:56:37.906Z,21.6
2016-06-29T11:59:52.032Z,21.7
2016-06-29T12:03:05.967Z,21.6
2016-06-29T12:06:20.489Z,21.6
2016-06-29T12:09:33.291Z,21.4
2016-06-29T12:12:47.360Z,21.4
2016-06-29T12:16:06.308Z,21.4
2016-06-29T12:19:10.635Z,21.5
2016-06-29T12:22:24.865Z,21.5
2016-06-29T12:25:38.438Z,21.4
2016-06-29T12:28:48.983Z,21.3
2016-06-29T12:32:02.423Z,21.3
2016-06-29T12:35:16.725Z,21.3
2016-06-29T12:38:30.822Z,21.3
2016-06-29T12:41:44.959Z,21.3
2016-06-29T12:45:04.198Z,21.3
2016-06-29T12:48:08.476Z,21.3
2016-06-29T12:51:22.447Z,21.3
2016-06-29T12:54:36.137Z,21.4
2016-06-29T12:57:50.343Z,21.5
2016-06-29T13:01:06.841Z,21.5
2016-06-29T13:04:11.308Z,21.5
2016-06-29T13:07:24.748Z,21.5
2016-06-29T13:10:38.401Z,21.6
2016-06-29T13:13:52.237Z,21.7
2016-06-29T13:17:05.626Z,21.8
2016-06-29T13:20:19.640Z,21.8
2016-06-29T13:23:34.014Z,21.8
2016-06-29T13:26:47.817Z,21.7
2016-06-29T13:30:04.118Z,21.6
2016-06-29T13:33:08.731Z,21.6
2016-06-29T13:36:21.014Z,21.6
2016-06-29T13:39:34.542Z,21.5
2016-06-29T13:42:48.257Z,21.5
2016-06-29T13:46:02.512Z,21.5
2016-06-29T13:49:17.074Z,21.5
2016-06-29T13:52:28.163Z,21.5
2016-06-29T13:55:41.926Z,21.5
2016-06-29T13:59:01.332Z,21.5
2016-06-29T14:02:05.802Z,21.5
2016-06-29T14:05:20.351Z,21.6
2016-06-29T14:08:34.268Z,21.4
2016-06-29T14:11:45.992Z,21.3
2016-06-29T14:15:02.296Z,21.2
2016-06-29T14:18:06.547Z,21.2
2016-06-29T14:21:20.970Z,21.2
2016-06-29T14:24:35.282Z,21.2
2016-06-29T14:27:48.559Z,21.2
2016-06-29T14:31:07.576Z,21.2
2016-06-29T14:34:11.392Z,21.2
2016-06-29T14:37:25.150Z,21.4
2016-06-29T14:40:38.337Z,21.5
2016-06-29T14:43:52.554Z,21.5
2016-06-29T14:47:06.825Z,21.4
2016-06-29T14:50:20.938Z,21.3
2016-06-29T14:53:32.775Z,21.3
2016-06-29T14:56:46.973Z,21.3
2016-06-29T15:00:06.278Z,21.2
2016-06-29T15:03:08.687Z,21.3
2016-06-29T15:06:24.035Z,21.3
2016-06-29T15:09:37.376Z,21.4
2016-06-29T15:12:51.025Z,21.3
2016-06-29T15:16:05.790Z,21.3
2016-06-29T15:19:20.428Z,21.3
2016-06-29T15:22:29.294Z,21.3
2016-06-29T15:25:45.569Z,21.3
2016-06-29T15:29:04.904Z,21.2
2016-06-29T15:32:08.713Z,21.2
2016-06-29T15:35:23.222Z,21.2
2016-06-29T15:38:37.526Z,21.1
2016-06-29T15:41:52.095Z,21.1
2016-06-29T15:45:06.573Z,21.1
2016-06-29T15:48:17.972Z,21
2016-06-29T15:51:32.533Z,21
2016-06-29T15:54:46.749Z,21
2016-06-29T15:58:05.922Z,21
2016-06-29T16:01:10.798Z,20.9
2016-06-29T16:04:25.322Z,20.8
2016-06-29T16:07:39.421Z,20.8
2016-06-29T16:10:58.695Z,20.8
2016-06-29T16:14:07.866Z,20.7
2016-06-29T16:17:12.690Z,20.6
2016-06-29T16:20:26.231Z,20.6
2016-06-29T16:23:40.179Z,20.5
2016-06-29T16:26:58.364Z,20.4
2016-06-29T16:30:07.411Z,20.4
2016-06-29T16:33:10.745Z,20.3
2016-06-29T16:36:25.157Z,20.3
2016-06-29T16:39:39.190Z,20.2
2016-06-29T16:42:53.263Z,20.2
2016-06-29T16:46:07.778Z,20.2
2016-06-29T16:49:22.329Z,20.2
2016-06-29T16:52:35.453Z,20.1
2016-06-29T16:55:50.057Z,20.1
2016-06-29T16:59:02.780Z,20
2016-06-29T17:02:17.584Z,19.9
2016-06-29T17:05:34.126Z,19.8
2016-06-29T17:08:48.865Z,19.7
2016-06-29T17:12:07.383Z,19.7
2016-06-29T17:15:12.146Z,19.6
2016-06-29T17:18:26.649Z,19.7
2016-06-29T17:21:41.122Z,19.7
2016-06-29T17:25:00.587Z,19.7
2016-06-29T17:28:05.292Z,19.8
2016-06-29T17:31:19.058Z,19.8
2016-06-29T17:34:33.478Z,19.8
2016-06-29T17:37:45.463Z,19.8
2016-06-29T17:41:04.114Z,19.8
2016-06-29T17:44:08.781Z,19.8
2016-06-29T17:47:23.367Z,19.7
2016-06-29T17:50:36.861Z,19.7
2016-06-29T17:53:51.158Z,19.7
2016-06-29T17:57:03.625Z,19.7
2016-06-29T18:00:20.054Z,19.6
2016-06-29T18:03:34.633Z,19.6
2016-06-29T18:06:47.458Z,19.5
2016-06-29T18:10:07.167Z,19.4
2016-06-29T18:13:12.172Z,19.4
2016-06-29T18:16:26.949Z,19.3
2016-06-29T18:19:39.938Z,19.3
2016-06-29T18:22:59.468Z,19.2
2016-06-29T18:26:04.376Z,19.2
2016-06-29T18:29:19.237Z,19.1
2016-06-29T18:32:34.147Z,19.1
2016-06-29T18:35:46.801Z,19.1
2016-06-29T18:39:08.525Z,19
2016-06-29T18:42:13.614Z,18.9
2016-06-29T18:45:28.474Z,18.8
2016-06-29T18:48:43.104Z,18.7
2016-06-29T18:52:02.842Z,18.7
2016-06-29T18:55:08.018Z,18.6
2016-06-29T18:58:22.550Z,18.6
2016-06-29T19:01:36.629Z,18.5
2016-06-29T19:04:50.061Z,18.5
2016-06-29T19:08:02.929Z,18.5
2016-06-29T19:11:19.678Z,18.4
2016-06-29T19:14:33.738Z,18.3
2016-06-29T19:17:48.688Z,18.3
2016-06-29T19:21:08.398Z,18.2
2016-06-29T19:24:13.446Z,18.1
2016-06-29T19:27:28.285Z,18.1
2016-06-29T19:30:40.078Z,18
2016-06-29T19:33:59.759Z,18
2016-06-29T19:37:04.994Z,17.9
2016-06-29T19:40:19.609Z,17.9
2016-06-29T19:43:32.327Z,17.9
2016-06-29T19:46:45.170Z,17.8
2016-06-29T19:50:04.942Z,17.8
2016-06-29T19:53:10.142Z,17.8
2016-06-29T19:56:24.802Z,17.8
2016-06-29T19:59:39.508Z,17.7
2016-06-29T20:02:54.015Z,17.6
2016-06-29T20:06:08.716Z,17.5
2016-06-29T20:09:23.466Z,17.5
2016-06-29T20:12:37.994Z,17.4
2016-06-29T20:15:50.622Z,17.3
2016-06-29T20:19:05.290Z,17.3
2016-06-29T20:22:20.156Z,17.2
2016-06-29T20:25:31.883Z,17.1
2016-06-29T20:28:43.215Z,17.1
2016-06-29T20:32:01.235Z,17
2016-06-29T20:35:06.352Z,16.9
2016-06-29T20:38:21.095Z,16.9
2016-06-29T20:41:35.693Z,16.8
2016-06-29T20:44:50.282Z,16.8
2016-06-29T20:48:05.056Z,16.7
2016-06-29T20:51:19.570Z,16.6
2016-06-29T20:54:33.816Z,16.5
2016-06-29T20:57:48.275Z,16.5
2016-06-29T21:01:07.809Z,16.4
2016-06-29T21:04:12.578Z,16.4
2016-06-29T21:07:26.783Z,16.3
2016-06-29T21:10:40.834Z,16.3
2016-06-29T21:14:00.055Z,16.2
2016-06-29T21:17:04.679Z,16.2
2016-06-29T21:20:18.906Z,16.1
2016-06-29T21:23:33.268Z,16.1
2016-06-29T21:26:47.382Z,16
2016-06-29T21:30:06.576Z,16
2016-06-29T21:33:11.215Z,16
2016-06-29T21:36:22.827Z,16
2016-06-29T21:39:36.321Z,15.9
2016-06-29T21:42:48.740Z,15.9
2016-06-29T21:46:05.439Z,15.8
2016-06-29T21:49:19.857Z,15.8
2016-06-29T21:52:33.932Z,15.8
2016-06-29T21:55:47.112Z,15.7
2016-06-29T21:59:06.680Z,15.7
2016-06-29T22:02:09.642Z,15.6
2016-06-29T22:05:26.097Z,15.5
2016-06-29T22:08:40.755Z,15.5
2016-06-29T22:11:55.074Z,15.5
2016-06-29T22:15:09.769Z,15.4
2016-06-29T22:18:23.882Z,15.4
2016-06-29T22:21:38.254Z,15.3
2016-06-29T22:24:52.820Z,15.2
2016-06-29T22:28:07.495Z,15.2
2016-06-29T22:31:22.164Z,15.1
2016-06-29T22:34:36.580Z,15
2016-06-29T22:37:51.272Z,15
2016-06-29T22:41:05.576Z,15
2016-06-29T22:44:20.102Z,15
2016-06-29T22:47:34.762Z,14.9
2016-06-29T22:50:49.178Z,14.9
2016-06-29T22:54:07.969Z,14.9
2016-06-29T22:57:12.900Z,14.9
2016-06-29T23:00:27.252Z,14.9
2016-06-29T23:03:41.267Z,14.8
2016-06-29T23:06:55.957Z,14.8
2016-06-29T23:10:10.447Z,14.7
2016-06-29T23:13:25.100Z,14.7
2016-06-29T23:16:39.638Z,14.7
2016-06-29T23:19:52.363Z,14.7
2016-06-29T23:23:08.636Z,14.7
2016-06-29T23:26:13.304Z,14.6
2016-06-29T23:29:27.859Z,14.6
2016-06-29T23:32:42.400Z,14.5
2016-06-29T23:35:56.870Z,14.5
2016-06-29T23:39:09.269Z,14.4
2016-06-29T23:42:25.861Z,14.4
2016-06-29T23:45:40.175Z,14.3
2016-06-29T23:48:54.405Z,14.2
2016-06-29T23:52:13.888Z,14.1
2016-06-29T23:55:18.694Z,14.1
2016-06-29T23:58:33.335Z,14.1
